sensor_id;sensor_type;location;lat;lon;timestamp;temperature;humidity
12632;DHT22;6381;45.748;12.106;2023-07-31T00:00:37;24.10;99.90
12632;DHT22;6381;45.748;12.106;2023-07-31T00:03:07;24.10;99.90
12632;DHT22;6381;45.748;12.106;2023-07-31T00:05:38;24.20;99.90
12632;DHT22;6381;45.748;12.106;2023-07-31T00:08:10;24.00;99.90
12632;DHT22;6381;45.748;12.106;2023-07-31T00:10:41;24.10;99.90
12632;DHT22;6381;45.748;12.106;2023-07-31T00:13:11;24.20;99.90
12632;DHT22;6381;45.748;12.106;2023-07-31T00:15:42;24.00;99.90
12632;DHT22;6381;45.748;12.106;2023-07-31T00:18:12;23.90;99.90
12632;DHT22;6381;45.748;12.106;2023-07-31T00:20:43;23.90;99.90
12632;DHT22;6381;45.748;12.106;2023-07-31T00:23:15;24.00;99.90
12632;DHT22;6381;45.748;12.106;2023-07-31T00:25:45;24.00;99.90
12632;DHT22;6381;45.748;12.106;2023-07-31T00:28:15;23.90;99.90
12632;DHT22;6381;45.748;12.106;2023-07-31T00:30:46;24.00;99.90
12632;DHT22;6381;45.748;12.106;2023-07-31T00:33:17;24.00;99.90
12632;DHT22;6381;45.748;12.106;2023-07-31T00:35:49;24.10;99.90
12632;DHT22;6381;45.748;12.106;2023-07-31T00:38:20;24.00;99.90
12632;DHT22;6381;45.748;12.106;2023-07-31T00:40:51;23.90;99.90
12632;DHT22;6381;45.748;12.106;2023-07-31T00:43:21;24.00;99.90
12632;DHT22;6381;45.748;12.106;2023-07-31T00:45:51;23.90;99.90
12632;DHT22;6381;45.748;12.106;2023-07-31T00:48:21;23.90;99.90
12632;DHT22;6381;45.748;12.106;2023-07-31T00:50:52;23.90;99.90
12632;DHT22;6381;45.748;12.106;2023-07-31T00:53:24;23.90;99.90
12632;DHT22;6381;45.748;12.106;2023-07-31T00:55:55;23.80;99.90
12632;DHT22;6381;45.748;12.106;2023-07-31T00:58:26;23.70;99.90
12632;DHT22;6381;45.748;12.106;2023-07-31T01:00:58;23.60;99.90
12632;DHT22;6381;45.748;12.106;2023-07-31T01:03:30;23.60;99.90
12632;DHT22;6381;45.748;12.106;2023-07-31T01:06:14;23.70;99.90
12632;DHT22;6381;45.748;12.106;2023-07-31T01:08:54;23.80;99.90
12632;DHT22;6381;45.748;12.106;2023-07-31T01:11:28;23.70;99.90
12632;DHT22;6381;45.748;12.106;2023-07-31T01:13:59;23.70;99.90
12632;DHT22;6381;45.748;12.106;2023-07-31T01:16:29;23.70;99.90
12632;DHT22;6381;45.748;12.106;2023-07-31T01:18:59;23.70;99.90
12632;DHT22;6381;45.748;12.106;2023-07-31T01:21:47;23.70;99.90
12632;DHT22;6381;45.748;12.106;2023-07-31T01:24:29;23.70;99.90
12632;DHT22;6381;45.748;12.106;2023-07-31T01:27:09;23.50;99.90
12632;DHT22;6381;45.748;12.106;2023-07-31T01:29:46;23.50;99.90
12632;DHT22;6381;45.748;12.106;2023-07-31T01:32:18;23.50;99.90
12632;DHT22;6381;45.748;12.106;2023-07-31T01:34:51;23.40;99.90
12632;DHT22;6381;45.748;12.106;2023-07-31T01:37:22;23.30;99.90
12632;DHT22;6381;45.748;12.106;2023-07-31T01:39:57;23.20;99.90
12632;DHT22;6381;45.748;12.106;2023-07-31T01:42:29;23.20;99.90
12632;DHT22;6381;45.748;12.106;2023-07-31T01:44:59;23.10;99.90
12632;DHT22;6381;45.748;12.106;2023-07-31T01:47:29;23.40;99.90
12632;DHT22;6381;45.748;12.106;2023-07-31T01:50:00;23.30;99.90
12632;DHT22;6381;45.748;12.106;2023-07-31T01:52:30;23.20;99.90
12632;DHT22;6381;45.748;12.106;2023-07-31T01:55:00;23.20;99.90
12632;DHT22;6381;45.748;12.106;2023-07-31T01:57:32;23.20;99.90
12632;DHT22;6381;45.748;12.106;2023-07-31T02:00:03;23.20;99.90
12632;DHT22;6381;45.748;12.106;2023-07-31T02:02:38;23.30;99.90
12632;DHT22;6381;45.748;12.106;2023-07-31T02:05:08;23.30;99.90
12632;DHT22;6381;45.748;12.106;2023-07-31T02:07:38;23.40;99.90
12632;DHT22;6381;45.748;12.106;2023-07-31T02:10:09;23.30;99.90
12632;DHT22;6381;45.748;12.106;2023-07-31T02:12:41;23.40;99.90
12632;DHT22;6381;45.748;12.106;2023-07-31T02:15:11;23.40;99.90
12632;DHT22;6381;45.748;12.106;2023-07-31T02:17:41;23.30;99.90
12632;DHT22;6381;45.748;12.106;2023-07-31T02:20:12;23.30;99.90
12632;DHT22;6381;45.748;12.106;2023-07-31T02:22:42;23.20;99.90
12632;DHT22;6381;45.748;12.106;2023-07-31T02:25:12;23.20;99.90
12632;DHT22;6381;45.748;12.106;2023-07-31T02:27:45;23.20;99.90
12632;DHT22;6381;45.748;12.106;2023-07-31T02:30:16;23.20;99.90
12632;DHT22;6381;45.748;12.106;2023-07-31T02:32:46;23.20;99.90
12632;DHT22;6381;45.748;12.106;2023-07-31T02:35:16;23.20;99.90
12632;DHT22;6381;45.748;12.106;2023-07-31T02:37:47;23.20;99.90
12632;DHT22;6381;45.748;12.106;2023-07-31T02:40:18;23.30;99.90
12632;DHT22;6381;45.748;12.106;2023-07-31T02:42:49;23.40;99.90
12632;DHT22;6381;45.748;12.106;2023-07-31T02:45:19;23.40;99.90
12632;DHT22;6381;45.748;12.106;2023-07-31T02:47:50;23.40;99.90
12632;DHT22;6381;45.748;12.106;2023-07-31T02:50:21;23.30;99.90
12632;DHT22;6381;45.748;12.106;2023-07-31T02:52:52;23.20;99.90
12632;DHT22;6381;45.748;12.106;2023-07-31T02:55:22;23.10;99.90
12632;DHT22;6381;45.748;12.106;2023-07-31T02:57:54;23.20;99.90
12632;DHT22;6381;45.748;12.106;2023-07-31T03:00:24;23.20;99.90
12632;DHT22;6381;45.748;12.106;2023-07-31T03:02:55;23.10;99.90
12632;DHT22;6381;45.748;12.106;2023-07-31T03:05:25;23.10;99.90
12632;DHT22;6381;45.748;12.106;2023-07-31T03:07:55;23.20;99.90
12632;DHT22;6381;45.748;12.106;2023-07-31T03:10:25;23.10;99.90
12632;DHT22;6381;45.748;12.106;2023-07-31T03:12:58;23.20;99.90
12632;DHT22;6381;45.748;12.106;2023-07-31T03:15:28;23.20;99.90
12632;DHT22;6381;45.748;12.106;2023-07-31T03:17:58;23.40;99.90
12632;DHT22;6381;45.748;12.106;2023-07-31T03:20:29;23.30;99.90
12632;DHT22;6381;45.748;12.106;2023-07-31T03:23:00;23.40;99.90
12632;DHT22;6381;45.748;12.106;2023-07-31T03:25:30;23.30;99.90
12632;DHT22;6381;45.748;12.106;2023-07-31T03:28:02;23.00;99.90
12632;DHT22;6381;45.748;12.106;2023-07-31T03:30:32;23.10;99.90
12632;DHT22;6381;45.748;12.106;2023-07-31T03:33:06;23.00;99.90
12632;DHT22;6381;45.748;12.106;2023-07-31T03:35:36;23.00;99.90
12632;DHT22;6381;45.748;12.106;2023-07-31T03:38:06;23.20;99.90
12632;DHT22;6381;45.748;12.106;2023-07-31T03:40:39;23.20;99.90
12632;DHT22;6381;45.748;12.106;2023-07-31T03:43:12;23.20;99.90
12632;DHT22;6381;45.748;12.106;2023-07-31T03:45:43;23.10;99.90
12632;DHT22;6381;45.748;12.106;2023-07-31T03:48:15;23.00;99.90
12632;DHT22;6381;45.748;12.106;2023-07-31T03:50:48;23.00;99.90
12632;DHT22;6381;45.748;12.106;2023-07-31T03:53:18;23.00;99.90
12632;DHT22;6381;45.748;12.106;2023-07-31T03:55:48;22.90;99.90
12632;DHT22;6381;45.748;12.106;2023-07-31T03:58:20;23.00;99.90
12632;DHT22;6381;45.748;12.106;2023-07-31T04:00:51;23.00;99.90
12632;DHT22;6381;45.748;12.106;2023-07-31T04:03:23;22.90;99.90
12632;DHT22;6381;45.748;12.106;2023-07-31T04:05:54;23.10;99.90
12632;DHT22;6381;45.748;12.106;2023-07-31T04:08:25;23.20;99.90
12632;DHT22;6381;45.748;12.106;2023-07-31T04:10:55;23.40;99.90
12632;DHT22;6381;45.748;12.106;2023-07-31T04:13:29;23.40;99.90
12632;DHT22;6381;45.748;12.106;2023-07-31T04:16:00;23.40;99.90
12632;DHT22;6381;45.748;12.106;2023-07-31T04:18:31;23.30;99.90
12632;DHT22;6381;45.748;12.106;2023-07-31T04:21:01;23.20;99.90
12632;DHT22;6381;45.748;12.106;2023-07-31T04:23:32;23.20;99.90
12632;DHT22;6381;45.748;12.106;2023-07-31T04:26:02;23.10;99.90
12632;DHT22;6381;45.748;12.106;2023-07-31T04:28:34;23.10;99.90
12632;DHT22;6381;45.748;12.106;2023-07-31T04:31:05;23.20;99.90
12632;DHT22;6381;45.748;12.106;2023-07-31T04:33:35;23.00;99.90
12632;DHT22;6381;45.748;12.106;2023-07-31T04:36:05;23.00;99.90
12632;DHT22;6381;45.748;12.106;2023-07-31T04:38:36;22.90;99.90
12632;DHT22;6381;45.748;12.106;2023-07-31T04:41:07;22.70;99.90
12632;DHT22;6381;45.748;12.106;2023-07-31T04:43:40;22.80;99.90
12632;DHT22;6381;45.748;12.106;2023-07-31T04:46:10;22.80;99.90
12632;DHT22;6381;45.748;12.106;2023-07-31T04:48:43;22.70;99.90
12632;DHT22;6381;45.748;12.106;2023-07-31T04:51:13;22.80;99.90
12632;DHT22;6381;45.748;12.106;2023-07-31T04:53:45;22.90;99.90
12632;DHT22;6381;45.748;12.106;2023-07-31T04:56:16;22.90;99.90
12632;DHT22;6381;45.748;12.106;2023-07-31T04:58:48;23.10;99.90
12632;DHT22;6381;45.748;12.106;2023-07-31T05:01:18;23.30;99.90
12632;DHT22;6381;45.748;12.106;2023-07-31T05:03:50;23.20;99.90
12632;DHT22;6381;45.748;12.106;2023-07-31T05:06:20;23.40;99.90
12632;DHT22;6381;45.748;12.106;2023-07-31T05:08:51;23.40;99.90
12632;DHT22;6381;45.748;12.106;2023-07-31T05:11:21;23.40;99.90
12632;DHT22;6381;45.748;12.106;2023-07-31T05:13:53;23.40;99.90
12632;DHT22;6381;45.748;12.106;2023-07-31T05:16:23;23.50;99.90
12632;DHT22;6381;45.748;12.106;2023-07-31T05:18:53;23.60;99.90
12632;DHT22;6381;45.748;12.106;2023-07-31T05:21:25;23.60;99.90
12632;DHT22;6381;45.748;12.106;2023-07-31T05:23:55;23.70;99.90
12632;DHT22;6381;45.748;12.106;2023-07-31T05:26:25;23.90;99.90
12632;DHT22;6381;45.748;12.106;2023-07-31T05:28:57;24.10;99.70
12632;DHT22;6381;45.748;12.106;2023-07-31T05:31:28;24.20;99.40
12632;DHT22;6381;45.748;12.106;2023-07-31T05:33:58;24.20;99.90
12632;DHT22;6381;45.748;12.106;2023-07-31T05:36:28;24.50;99.70
12632;DHT22;6381;45.748;12.106;2023-07-31T05:38:58;24.40;98.60
12632;DHT22;6381;45.748;12.106;2023-07-31T05:41:28;24.50;99.20
12632;DHT22;6381;45.748;12.106;2023-07-31T05:44:00;24.60;98.90
12632;DHT22;6381;45.748;12.106;2023-07-31T05:46:30;24.70;98.70
12632;DHT22;6381;45.748;12.106;2023-07-31T05:49:01;24.80;98.30
12632;DHT22;6381;45.748;12.106;2023-07-31T05:51:31;24.80;97.10
12632;DHT22;6381;45.748;12.106;2023-07-31T05:54:01;24.80;96.40
12632;DHT22;6381;45.748;12.106;2023-07-31T05:56:31;24.90;96.70
12632;DHT22;6381;45.748;12.106;2023-07-31T05:59:04;25.00;96.20
12632;DHT22;6381;45.748;12.106;2023-07-31T06:01:34;24.90;95.50
12632;DHT22;6381;45.748;12.106;2023-07-31T06:04:05;25.10;95.30
12632;DHT22;6381;45.748;12.106;2023-07-31T06:06:35;25.00;94.60
12632;DHT22;6381;45.748;12.106;2023-07-31T06:09:05;25.00;94.50
12632;DHT22;6381;45.748;12.106;2023-07-31T06:11:36;25.10;93.60
12632;DHT22;6381;45.748;12.106;2023-07-31T06:14:07;25.10;93.70
12632;DHT22;6381;45.748;12.106;2023-07-31T06:16:38;25.20;94.10
12632;DHT22;6381;45.748;12.106;2023-07-31T06:19:08;25.20;92.20
12632;DHT22;6381;45.748;12.106;2023-07-31T06:21:39;25.20;91.80
12632;DHT22;6381;45.748;12.106;2023-07-31T06:24:10;25.40;92.40
12632;DHT22;6381;45.748;12.106;2023-07-31T06:26:41;25.40;91.40
12632;DHT22;6381;45.748;12.106;2023-07-31T06:29:13;25.50;90.90
12632;DHT22;6381;45.748;12.106;2023-07-31T06:31:43;25.60;91.40
12632;DHT22;6381;45.748;12.106;2023-07-31T06:34:14;25.70;91.90
12632;DHT22;6381;45.748;12.106;2023-07-31T06:36:45;25.90;90.10
12632;DHT22;6381;45.748;12.106;2023-07-31T06:39:16;26.00;89.70
12632;DHT22;6381;45.748;12.106;2023-07-31T06:41:48;26.10;88.20
12632;DHT22;6381;45.748;12.106;2023-07-31T06:44:22;26.20;89.70
12632;DHT22;6381;45.748;12.106;2023-07-31T06:46:52;26.30;88.80
12632;DHT22;6381;45.748;12.106;2023-07-31T06:49:23;26.00;88.50
12632;DHT22;6381;45.748;12.106;2023-07-31T06:51:53;26.10;90.50
12632;DHT22;6381;45.748;12.106;2023-07-31T06:54:24;26.20;90.30
12632;DHT22;6381;45.748;12.106;2023-07-31T06:56:54;26.10;89.70
12632;DHT22;6381;45.748;12.106;2023-07-31T06:59:26;26.20;88.60
12632;DHT22;6381;45.748;12.106;2023-07-31T07:01:55;26.20;86.80
12632;DHT22;6381;45.748;12.106;2023-07-31T07:04:26;26.40;86.90
12632;DHT22;6381;45.748;12.106;2023-07-31T07:06:56;26.40;86.00
12632;DHT22;6381;45.748;12.106;2023-07-31T07:09:27;26.50;85.90
12632;DHT22;6381;45.748;12.106;2023-07-31T07:11:58;26.30;86.50
12632;DHT22;6381;45.748;12.106;2023-07-31T07:14:30;26.20;86.00
12632;DHT22;6381;45.748;12.106;2023-07-31T07:17:00;26.40;84.10
12632;DHT22;6381;45.748;12.106;2023-07-31T07:19:30;26.60;84.20
12632;DHT22;6381;45.748;12.106;2023-07-31T07:21:59;26.60;85.30
12632;DHT22;6381;45.748;12.106;2023-07-31T07:24:30;26.60;85.70
12632;DHT22;6381;45.748;12.106;2023-07-31T07:27:00;26.80;87.40
12632;DHT22;6381;45.748;12.106;2023-07-31T07:29:33;26.70;83.80
12632;DHT22;6381;45.748;12.106;2023-07-31T07:32:04;26.50;83.90
12632;DHT22;6381;45.748;12.106;2023-07-31T07:34:35;26.60;85.20
12632;DHT22;6381;45.748;12.106;2023-07-31T07:37:07;26.60;84.00
12632;DHT22;6381;45.748;12.106;2023-07-31T07:39:37;26.60;84.60
12632;DHT22;6381;45.748;12.106;2023-07-31T07:42:07;26.50;85.90
12632;DHT22;6381;45.748;12.106;2023-07-31T07:44:39;26.90;86.10
12632;DHT22;6381;45.748;12.106;2023-07-31T07:47:10;27.20;85.00
12632;DHT22;6381;45.748;12.106;2023-07-31T07:49:40;27.40;84.90
12632;DHT22;6381;45.748;12.106;2023-07-31T07:52:17;27.20;81.60
12632;DHT22;6381;45.748;12.106;2023-07-31T07:54:47;27.30;81.00
12632;DHT22;6381;45.748;12.106;2023-07-31T07:57:18;27.30;81.40
12632;DHT22;6381;45.748;12.106;2023-07-31T07:59:50;27.30;82.40
12632;DHT22;6381;45.748;12.106;2023-07-31T08:02:22;27.20;80.40
12632;DHT22;6381;45.748;12.106;2023-07-31T08:04:53;27.20;81.40
12632;DHT22;6381;45.748;12.106;2023-07-31T08:07:23;27.10;79.30
12632;DHT22;6381;45.748;12.106;2023-07-31T08:09:53;27.10;79.30
12632;DHT22;6381;45.748;12.106;2023-07-31T08:12:23;27.10;79.90
12632;DHT22;6381;45.748;12.106;2023-07-31T08:14:55;27.10;80.30
12632;DHT22;6381;45.748;12.106;2023-07-31T08:17:25;27.20;79.30
12632;DHT22;6381;45.748;12.106;2023-07-31T08:19:55;27.20;79.30
12632;DHT22;6381;45.748;12.106;2023-07-31T08:22:26;27.30;79.90
12632;DHT22;6381;45.748;12.106;2023-07-31T08:24:56;27.20;81.00
12632;DHT22;6381;45.748;12.106;2023-07-31T08:27:26;27.10;78.20
12632;DHT22;6381;45.748;12.106;2023-07-31T08:29:59;27.20;76.70
12632;DHT22;6381;45.748;12.106;2023-07-31T08:32:29;27.20;76.00
12632;DHT22;6381;45.748;12.106;2023-07-31T08:34:59;27.20;75.40
12632;DHT22;6381;45.748;12.106;2023-07-31T08:37:30;27.20;76.50
12632;DHT22;6381;45.748;12.106;2023-07-31T08:40:00;27.40;75.00
12632;DHT22;6381;45.748;12.106;2023-07-31T08:42:31;27.50;75.00
12632;DHT22;6381;45.748;12.106;2023-07-31T08:45:04;27.40;74.20
12632;DHT22;6381;45.748;12.106;2023-07-31T08:47:35;27.40;73.40
12632;DHT22;6381;45.748;12.106;2023-07-31T08:50:12;27.40;76.80
12632;DHT22;6381;45.748;12.106;2023-07-31T08:52:42;27.60;76.90
12632;DHT22;6381;45.748;12.106;2023-07-31T08:55:13;27.70;76.20
12632;DHT22;6381;45.748;12.106;2023-07-31T08:57:44;27.80;75.70
12632;DHT22;6381;45.748;12.106;2023-07-31T09:00:19;27.80;78.20
12632;DHT22;6381;45.748;12.106;2023-07-31T09:02:56;27.80;77.40
12632;DHT22;6381;45.748;12.106;2023-07-31T09:05:32;27.80;77.40
12632;DHT22;6381;45.748;12.106;2023-07-31T09:08:05;27.80;75.30
12632;DHT22;6381;45.748;12.106;2023-07-31T09:10:41;27.80;75.70
12632;DHT22;6381;45.748;12.106;2023-07-31T09:13:11;27.90;73.70
12632;DHT22;6381;45.748;12.106;2023-07-31T09:15:45;28.10;74.30
12632;DHT22;6381;45.748;12.106;2023-07-31T09:18:15;28.40;76.10
12632;DHT22;6381;45.748;12.106;2023-07-31T09:21:01;28.30;74.30
12632;DHT22;6381;45.748;12.106;2023-07-31T09:23:42;28.50;75.30
12632;DHT22;6381;45.748;12.106;2023-07-31T09:26:29;28.50;74.00
12632;DHT22;6381;45.748;12.106;2023-07-31T09:29:00;28.10;71.40
12632;DHT22;6381;45.748;12.106;2023-07-31T09:31:39;28.40;72.80
12632;DHT22;6381;45.748;12.106;2023-07-31T09:34:10;28.30;72.10
12632;DHT22;6381;45.748;12.106;2023-07-31T09:36:42;28.50;70.30
12632;DHT22;6381;45.748;12.106;2023-07-31T09:39:13;28.70;72.70
12632;DHT22;6381;45.748;12.106;2023-07-31T09:41:47;28.50;72.00
12632;DHT22;6381;45.748;12.106;2023-07-31T09:44:18;28.50;73.70
12632;DHT22;6381;45.748;12.106;2023-07-31T09:46:50;28.70;69.70
12632;DHT22;6381;45.748;12.106;2023-07-31T09:49:20;28.80;70.20
12632;DHT22;6381;45.748;12.106;2023-07-31T09:51:50;29.00;70.00
12632;DHT22;6381;45.748;12.106;2023-07-31T09:54:21;29.00;70.30
12632;DHT22;6381;45.748;12.106;2023-07-31T09:56:51;29.20;73.20
12632;DHT22;6381;45.748;12.106;2023-07-31T09:59:22;29.20;67.20
12632;DHT22;6381;45.748;12.106;2023-07-31T10:01:55;29.10;68.40
12632;DHT22;6381;45.748;12.106;2023-07-31T10:04:27;29.30;67.60
12632;DHT22;6381;45.748;12.106;2023-07-31T10:06:59;29.50;68.70
12632;DHT22;6381;45.748;12.106;2023-07-31T10:09:31;29.50;66.60
12632;DHT22;6381;45.748;12.106;2023-07-31T10:12:06;29.60;67.60
12632;DHT22;6381;45.748;12.106;2023-07-31T10:14:41;29.40;65.80
12632;DHT22;6381;45.748;12.106;2023-07-31T10:17:14;29.50;66.30
12632;DHT22;6381;45.748;12.106;2023-07-31T10:19:45;29.60;64.80
12632;DHT22;6381;45.748;12.106;2023-07-31T10:22:16;29.70;67.50
12632;DHT22;6381;45.748;12.106;2023-07-31T10:24:49;29.60;66.30
12632;DHT22;6381;45.748;12.106;2023-07-31T10:27:20;29.70;68.50
12632;DHT22;6381;45.748;12.106;2023-07-31T10:29:50;29.70;72.70
12632;DHT22;6381;45.748;12.106;2023-07-31T10:32:24;29.90;71.20
12632;DHT22;6381;45.748;12.106;2023-07-31T10:34:55;29.90;72.50
12632;DHT22;6381;45.748;12.106;2023-07-31T10:37:27;30.10;70.50
12632;DHT22;6381;45.748;12.106;2023-07-31T10:40:00;30.10;69.20
12632;DHT22;6381;45.748;12.106;2023-07-31T10:42:32;30.10;68.10
12632;DHT22;6381;45.748;12.106;2023-07-31T10:45:04;30.20;70.00
12632;DHT22;6381;45.748;12.106;2023-07-31T10:47:43;30.10;65.40
12632;DHT22;6381;45.748;12.106;2023-07-31T10:50:17;30.30;68.40
12632;DHT22;6381;45.748;12.106;2023-07-31T10:52:48;30.00;66.00
12632;DHT22;6381;45.748;12.106;2023-07-31T10:55:29;30.10;66.50
12632;DHT22;6381;45.748;12.106;2023-07-31T10:58:07;30.40;66.90
12632;DHT22;6381;45.748;12.106;2023-07-31T11:00:38;30.40;64.20
12632;DHT22;6381;45.748;12.106;2023-07-31T11:03:12;30.40;63.00
12632;DHT22;6381;45.748;12.106;2023-07-31T11:05:47;30.60;67.20
12632;DHT22;6381;45.748;12.106;2023-07-31T11:08:20;30.60;67.20
12632;DHT22;6381;45.748;12.106;2023-07-31T11:10:51;30.50;64.00
12632;DHT22;6381;45.748;12.106;2023-07-31T11:13:40;30.50;63.90
12632;DHT22;6381;45.748;12.106;2023-07-31T11:16:13;30.40;62.20
12632;DHT22;6381;45.748;12.106;2023-07-31T11:18:46;30.70;64.10
12632;DHT22;6381;45.748;12.106;2023-07-31T11:21:19;30.70;64.20
12632;DHT22;6381;45.748;12.106;2023-07-31T11:23:52;31.20;68.20
12632;DHT22;6381;45.748;12.106;2023-07-31T11:26:25;31.00;67.50
12632;DHT22;6381;45.748;12.106;2023-07-31T11:28:55;31.20;62.60
12632;DHT22;6381;45.748;12.106;2023-07-31T11:31:25;31.30;62.40
12632;DHT22;6381;45.748;12.106;2023-07-31T11:34:06;31.20;60.40
12632;DHT22;6381;45.748;12.106;2023-07-31T11:36:37;31.10;60.50
12632;DHT22;6381;45.748;12.106;2023-07-31T11:39:08;31.30;60.00
12632;DHT22;6381;45.748;12.106;2023-07-31T11:41:41;31.10;61.90
12632;DHT22;6381;45.748;12.106;2023-07-31T11:44:12;31.30;63.00
12632;DHT22;6381;45.748;12.106;2023-07-31T11:46:56;31.50;58.30
12632;DHT22;6381;45.748;12.106;2023-07-31T11:49:28;31.50;57.40
12632;DHT22;6381;45.748;12.106;2023-07-31T11:52:02;31.70;60.10
12632;DHT22;6381;45.748;12.106;2023-07-31T11:54:32;32.00;60.70
12632;DHT22;6381;45.748;12.106;2023-07-31T11:57:05;32.00;56.70
12632;DHT22;6381;45.748;12.106;2023-07-31T11:59:39;32.00;55.80
12632;DHT22;6381;45.748;12.106;2023-07-31T12:02:10;31.90;56.10
12632;DHT22;6381;45.748;12.106;2023-07-31T12:04:42;31.90;55.40
12632;DHT22;6381;45.748;12.106;2023-07-31T12:07:12;32.10;58.80
12632;DHT22;6381;45.748;12.106;2023-07-31T12:09:52;32.00;57.30
12632;DHT22;6381;45.748;12.106;2023-07-31T12:12:24;32.00;56.80
12632;DHT22;6381;45.748;12.106;2023-07-31T12:14:55;32.00;55.40
12632;DHT22;6381;45.748;12.106;2023-07-31T12:17:25;32.50;61.30
12632;DHT22;6381;45.748;12.106;2023-07-31T12:19:57;32.40;53.50
12632;DHT22;6381;45.748;12.106;2023-07-31T12:22:28;32.40;53.40
12632;DHT22;6381;45.748;12.106;2023-07-31T12:24:59;32.60;55.60
12632;DHT22;6381;45.748;12.106;2023-07-31T12:27:33;32.40;54.00
12632;DHT22;6381;45.748;12.106;2023-07-31T12:30:05;32.90;52.60
12632;DHT22;6381;45.748;12.106;2023-07-31T12:32:35;33.20;57.10
12632;DHT22;6381;45.748;12.106;2023-07-31T12:35:08;32.40;54.80
12632;DHT22;6381;45.748;12.106;2023-07-31T12:37:39;32.10;57.40
12632;DHT22;6381;45.748;12.106;2023-07-31T12:40:11;32.70;56.50
12632;DHT22;6381;45.748;12.106;2023-07-31T12:42:44;32.20;55.40
12632;DHT22;6381;45.748;12.106;2023-07-31T12:45:14;32.80;54.50
12632;DHT22;6381;45.748;12.106;2023-07-31T12:47:45;32.90;54.60
12632;DHT22;6381;45.748;12.106;2023-07-31T12:50:17;32.90;55.10
12632;DHT22;6381;45.748;12.106;2023-07-31T12:52:53;33.40;53.70
12632;DHT22;6381;45.748;12.106;2023-07-31T12:55:24;33.60;54.70
12632;DHT22;6381;45.748;12.106;2023-07-31T12:57:55;32.40;54.30
12632;DHT22;6381;45.748;12.106;2023-07-31T13:00:25;33.20;53.10
12632;DHT22;6381;45.748;12.106;2023-07-31T13:02:55;33.90;54.00
12632;DHT22;6381;45.748;12.106;2023-07-31T13:05:28;33.80;53.20
12632;DHT22;6381;45.748;12.106;2023-07-31T13:07:58;34.30;50.70
12632;DHT22;6381;45.748;12.106;2023-07-31T13:10:29;33.60;52.50
12632;DHT22;6381;45.748;12.106;2023-07-31T13:12:59;33.60;50.40
12632;DHT22;6381;45.748;12.106;2023-07-31T13:15:30;34.00;49.40
12632;DHT22;6381;45.748;12.106;2023-07-31T13:18:01;34.40;53.20
12632;DHT22;6381;45.748;12.106;2023-07-31T13:20:32;34.40;52.60
12632;DHT22;6381;45.748;12.106;2023-07-31T13:23:03;34.00;50.00
12632;DHT22;6381;45.748;12.106;2023-07-31T13:25:33;34.50;48.40
12632;DHT22;6381;45.748;12.106;2023-07-31T13:28:04;34.60;47.80
12632;DHT22;6381;45.748;12.106;2023-07-31T13:30:34;34.80;48.90
12632;DHT22;6381;45.748;12.106;2023-07-31T13:33:04;34.60;48.10
12632;DHT22;6381;45.748;12.106;2023-07-31T13:35:58;34.60;49.00
12632;DHT22;6381;45.748;12.106;2023-07-31T13:38:28;35.00;49.10
12632;DHT22;6381;45.748;12.106;2023-07-31T13:40:58;34.90;49.80
12632;DHT22;6381;45.748;12.106;2023-07-31T13:43:29;34.80;48.60
12632;DHT22;6381;45.748;12.106;2023-07-31T13:45:59;34.90;49.30
12632;DHT22;6381;45.748;12.106;2023-07-31T13:48:35;34.80;48.90
12632;DHT22;6381;45.748;12.106;2023-07-31T13:51:07;34.40;50.50
12632;DHT22;6381;45.748;12.106;2023-07-31T13:53:38;32.70;51.60
12632;DHT22;6381;45.748;12.106;2023-07-31T13:56:08;32.60;53.40
12632;DHT22;6381;45.748;12.106;2023-07-31T13:58:39;33.50;50.90
12632;DHT22;6381;45.748;12.106;2023-07-31T14:01:11;34.20;54.00
12632;DHT22;6381;45.748;12.106;2023-07-31T14:03:41;33.40;51.30
12632;DHT22;6381;45.748;12.106;2023-07-31T14:06:15;32.30;53.30
12632;DHT22;6381;45.748;12.106;2023-07-31T14:08:46;31.60;53.00
12632;DHT22;6381;45.748;12.106;2023-07-31T14:11:16;31.40;53.80
12632;DHT22;6381;45.748;12.106;2023-07-31T14:13:47;31.30;55.90
12632;DHT22;6381;45.748;12.106;2023-07-31T14:16:17;31.40;56.50
12632;DHT22;6381;45.748;12.106;2023-07-31T14:18:49;33.30;55.30
12632;DHT22;6381;45.748;12.106;2023-07-31T14:21:23;34.00;54.30
12632;DHT22;6381;45.748;12.106;2023-07-31T14:23:54;33.80;52.90
12632;DHT22;6381;45.748;12.106;2023-07-31T14:26:24;32.70;51.50
12632;DHT22;6381;45.748;12.106;2023-07-31T14:28:54;31.70;53.20
12632;DHT22;6381;45.748;12.106;2023-07-31T14:31:25;31.40;55.80
12632;DHT22;6381;45.748;12.106;2023-07-31T14:33:56;31.30;55.70
12632;DHT22;6381;45.748;12.106;2023-07-31T14:36:28;31.40;55.60
12632;DHT22;6381;45.748;12.106;2023-07-31T14:39:00;32.10;55.60
12632;DHT22;6381;45.748;12.106;2023-07-31T14:41:32;31.60;54.60
12632;DHT22;6381;45.748;12.106;2023-07-31T14:44:03;31.70;54.40
12632;DHT22;6381;45.748;12.106;2023-07-31T14:46:33;31.10;53.00
12632;DHT22;6381;45.748;12.106;2023-07-31T14:49:04;31.90;55.50
12632;DHT22;6381;45.748;12.106;2023-07-31T14:51:35;31.50;53.50
12632;DHT22;6381;45.748;12.106;2023-07-31T14:54:06;31.60;53.20
12632;DHT22;6381;45.748;12.106;2023-07-31T14:56:37;31.40;57.00
12632;DHT22;6381;45.748;12.106;2023-07-31T14:59:07;31.90;55.00
12632;DHT22;6381;45.748;12.106;2023-07-31T15:01:38;33.20;52.90
12632;DHT22;6381;45.748;12.106;2023-07-31T15:04:09;34.30;53.30
12632;DHT22;6381;45.748;12.106;2023-07-31T15:06:41;34.20;50.60
12632;DHT22;6381;45.748;12.106;2023-07-31T15:09:12;33.20;51.50
12632;DHT22;6381;45.748;12.106;2023-07-31T15:11:43;32.70;53.70
12632;DHT22;6381;45.748;12.106;2023-07-31T15:14:13;33.20;53.80
12632;DHT22;6381;45.748;12.106;2023-07-31T15:16:44;34.30;51.50
12632;DHT22;6381;45.748;12.106;2023-07-31T15:19:16;34.80;51.10
12632;DHT22;6381;45.748;12.106;2023-07-31T15:21:48;35.30;48.90
12632;DHT22;6381;45.748;12.106;2023-07-31T15:24:18;35.00;48.60
12632;DHT22;6381;45.748;12.106;2023-07-31T15:26:49;34.90;49.10
12632;DHT22;6381;45.748;12.106;2023-07-31T15:29:19;33.10;50.90
12632;DHT22;6381;45.748;12.106;2023-07-31T15:31:49;33.30;52.20
12632;DHT22;6381;45.748;12.106;2023-07-31T15:34:19;32.20;53.00
12632;DHT22;6381;45.748;12.106;2023-07-31T15:36:52;31.50;54.00
12632;DHT22;6381;45.748;12.106;2023-07-31T15:39:22;31.40;55.00
12632;DHT22;6381;45.748;12.106;2023-07-31T15:41:53;31.30;56.10
12632;DHT22;6381;45.748;12.106;2023-07-31T15:44:24;31.60;55.40
12632;DHT22;6381;45.748;12.106;2023-07-31T15:46:54;33.20;54.80
12632;DHT22;6381;45.748;12.106;2023-07-31T15:49:24;34.20;51.20
12632;DHT22;6381;45.748;12.106;2023-07-31T15:51:56;34.70;50.90
12632;DHT22;6381;45.748;12.106;2023-07-31T15:54:27;34.60;49.20
12632;DHT22;6381;45.748;12.106;2023-07-31T15:56:57;34.40;48.20